sensor_id;sensor_type;location;lat;lon;timestamp;temperature;humidity
45319;DHT22;31057;48.498;32.260;2022-12-19T02:28:33;-3.20;99.90
45319;DHT22;31057;48.498;32.260;2022-12-19T02:31:04;-3.30;99.90
45319;DHT22;31057;48.498;32.260;2022-12-19T02:38:17;-3.20;99.90
45319;DHT22;31057;48.498;32.260;2022-12-19T02:40:25;-3.20;99.90
45319;DHT22;31057;48.498;32.260;2022-12-19T02:42:32;-3.30;99.90
45319;DHT22;31057;48.498;32.260;2022-12-19T02:44:39;-3.30;99.90
45319;DHT22;31057;48.498;32.260;2022-12-19T02:46:43;-3.30;99.90
45319;DHT22;31057;48.498;32.260;2022-12-19T02:48:46;-3.30;99.90
45319;DHT22;31057;48.498;32.260;2022-12-19T02:50:48;-3.30;99.90
45319;DHT22;31057;48.498;32.260;2022-12-19T02:52:51;-3.30;99.90
45319;DHT22;31057;48.498;32.260;2022-12-19T02:54:54;-3.40;99.90
45319;DHT22;31057;48.498;32.260;2022-12-19T03:04:09;-3.30;99.90
45319;DHT22;31057;48.498;32.260;2022-12-19T03:06:42;-3.40;99.90
45319;DHT22;31057;48.498;32.260;2022-12-19T03:12:59;-3.50;99.90
45319;DHT22;31057;48.498;32.260;2022-12-19T03:15:03;-3.60;99.90
45319;DHT22;31057;48.498;32.260;2022-12-19T03:17:06;-3.60;99.90
45319;DHT22;31057;48.498;32.260;2022-12-19T03:19:12;-3.60;99.90
45319;DHT22;31057;48.498;32.260;2022-12-19T03:21:26;-3.50;99.90
45319;DHT22;31057;48.498;32.260;2022-12-19T03:23:30;-3.50;99.90
45319;DHT22;31057;48.498;32.260;2022-12-19T03:25:32;-3.60;99.90
45319;DHT22;31057;48.498;32.260;2022-12-19T03:27:36;-3.60;99.90
45319;DHT22;31057;48.498;32.260;2022-12-19T03:29:48;-3.70;99.90
45319;DHT22;31057;48.498;32.260;2022-12-19T03:31:54;-3.70;99.90
45319;DHT22;31057;48.498;32.260;2022-12-19T03:33:59;-3.60;99.90
45319;DHT22;31057;48.498;32.260;2022-12-19T03:36:05;-3.70;99.90
45319;DHT22;31057;48.498;32.260;2022-12-19T03:38:10;-3.60;99.90
45319;DHT22;31057;48.498;32.260;2022-12-19T03:40:17;-3.70;99.90
45319;DHT22;31057;48.498;32.260;2022-12-19T03:42:22;-3.60;99.90
45319;DHT22;31057;48.498;32.260;2022-12-19T03:44:45;-3.70;99.90
45319;DHT22;31057;48.498;32.260;2022-12-19T03:46:54;-3.70;99.90
45319;DHT22;31057;48.498;32.260;2022-12-19T03:49:00;-3.80;99.90
45319;DHT22;31057;48.498;32.260;2022-12-19T03:56:10;-3.80;99.90
45319;DHT22;31057;48.498;32.260;2022-12-19T03:58:20;-3.90;99.90
45319;DHT22;31057;48.498;32.260;2022-12-19T04:00:24;-3.90;99.90
45319;DHT22;31057;48.498;32.260;2022-12-19T04:02:27;-3.90;99.90
45319;DHT22;31057;48.498;32.260;2022-12-19T04:04:30;-3.80;99.90
45319;DHT22;31057;48.498;32.260;2022-12-19T04:06:37;-3.80;99.90
45319;DHT22;31057;48.498;32.260;2022-12-19T04:08:40;-3.90;99.90
45319;DHT22;31057;48.498;32.260;2022-12-19T04:10:46;-3.90;99.90
45319;DHT22;31057;48.498;32.260;2022-12-19T04:13:03;-3.90;99.90
45319;DHT22;31057;48.498;32.260;2022-12-19T04:15:11;-3.90;99.90
45319;DHT22;31057;48.498;32.260;2022-12-19T04:17:16;-3.90;99.90
45319;DHT22;31057;48.498;32.260;2022-12-19T04:21:36;-4.00;99.90
45319;DHT22;31057;48.498;32.260;2022-12-19T04:23:49;-3.90;99.90
45319;DHT22;31057;48.498;32.260;2022-12-19T04:25:58;-3.90;99.90
45319;DHT22;31057;48.498;32.260;2022-12-19T04:28:11;-3.90;99.90
45319;DHT22;31057;48.498;32.260;2022-12-19T04:30:16;-4.00;99.90
45319;DHT22;31057;48.498;32.260;2022-12-19T04:32:18;-4.00;99.90
45319;DHT22;31057;48.498;32.260;2022-12-19T04:34:21;-4.00;99.90
45319;DHT22;31057;48.498;32.260;2022-12-19T04:36:24;-4.00;99.90
45319;DHT22;31057;48.498;32.260;2022-12-19T04:38:27;-4.00;99.90
45319;DHT22;31057;48.498;32.260;2022-12-19T04:40:28;-4.00;99.90
45319;DHT22;31057;48.498;32.260;2022-12-19T04:42:30;-4.00;99.90
45319;DHT22;31057;48.498;32.260;2022-12-19T04:44:32;-4.00;99.90
45319;DHT22;31057;48.498;32.260;2022-12-19T04:46:34;-4.00;99.90
45319;DHT22;31057;48.498;32.260;2022-12-19T04:48:37;-4.00;99.90
45319;DHT22;31057;48.498;32.260;2022-12-19T04:50:39;-4.10;99.90
45319;DHT22;31057;48.498;32.260;2022-12-19T04:52:41;-4.20;99.90
45319;DHT22;31057;48.498;32.260;2022-12-19T04:54:43;-4.30;99.90
45319;DHT22;31057;48.498;32.260;2022-12-19T04:56:45;-4.30;99.90
45319;DHT22;31057;48.498;32.260;2022-12-19T04:58:47;-4.30;99.90
45319;DHT22;31057;48.498;32.260;2022-12-19T05:00:48;-4.20;99.90
45319;DHT22;31057;48.498;32.260;2022-12-19T05:02:50;-4.20;99.90
45319;DHT22;31057;48.498;32.260;2022-12-19T05:04:53;-4.20;99.90
45319;DHT22;31057;48.498;32.260;2022-12-19T05:06:54;-4.20;99.90
45319;DHT22;31057;48.498;32.260;2022-12-19T05:08:56;-4.10;99.90
45319;DHT22;31057;48.498;32.260;2022-12-19T05:10:59;-4.20;99.90
45319;DHT22;31057;48.498;32.260;2022-12-19T05:13:01;-4.20;99.90
45319;DHT22;31057;48.498;32.260;2022-12-19T05:15:03;-4.20;99.90
45319;DHT22;31057;48.498;32.260;2022-12-19T05:17:05;-4.30;99.90
45319;DHT22;31057;48.498;32.260;2022-12-19T05:19:07;-4.30;99.90
45319;DHT22;31057;48.498;32.260;2022-12-19T05:21:09;-4.40;99.90
45319;DHT22;31057;48.498;32.260;2022-12-19T05:23:11;-4.40;99.90
45319;DHT22;31057;48.498;32.260;2022-12-19T05:25:18;-4.50;99.90
45319;DHT22;31057;48.498;32.260;2022-12-19T05:27:20;-4.50;99.90
45319;DHT22;31057;48.498;32.260;2022-12-19T05:29:22;-4.50;99.90
45319;DHT22;31057;48.498;32.260;2022-12-19T05:31:24;-4.50;99.90
45319;DHT22;31057;48.498;32.260;2022-12-19T05:33:29;-4.60;99.90
45319;DHT22;31057;48.498;32.260;2022-12-19T05:35:32;-4.70;99.90
45319;DHT22;31057;48.498;32.260;2022-12-19T05:37:34;-4.70;99.90
45319;DHT22;31057;48.498;32.260;2022-12-19T05:39:35;-4.70;99.90
45319;DHT22;31057;48.498;32.260;2022-12-19T05:41:37;-4.70;99.90
45319;DHT22;31057;48.498;32.260;2022-12-19T05:43:39;-4.70;99.90
45319;DHT22;31057;48.498;32.260;2022-12-19T05:45:41;-4.70;99.90
45319;DHT22;31057;48.498;32.260;2022-12-19T05:47:44;-4.70;99.90
45319;DHT22;31057;48.498;32.260;2022-12-19T05:49:47;-4.70;99.90
45319;DHT22;31057;48.498;32.260;2022-12-19T05:51:49;-4.70;99.90
45319;DHT22;31057;48.498;32.260;2022-12-19T05:53:52;-4.80;99.90
45319;DHT22;31057;48.498;32.260;2022-12-19T05:56:15;-4.80;99.90
45319;DHT22;31057;48.498;32.260;2022-12-19T05:58:17;-4.70;99.90
45319;DHT22;31057;48.498;32.260;2022-12-19T06:00:21;-4.70;99.90
45319;DHT22;31057;48.498;32.260;2022-12-19T08:14:33;-4.80;99.90
45319;DHT22;31057;48.498;32.260;2022-12-19T08:16:35;-4.40;99.90
45319;DHT22;31057;48.498;32.260;2022-12-19T08:18:57;-4.70;99.90
45319;DHT22;31057;48.498;32.260;2022-12-19T08:20:59;-4.80;99.90
45319;DHT22;31057;48.498;32.260;2022-12-19T08:23:01;-4.70;99.90
45319;DHT22;31057;48.498;32.260;2022-12-19T08:25:03;-4.60;99.90
45319;DHT22;31057;48.498;32.260;2022-12-19T08:27:05;-4.70;99.90
45319;DHT22;31057;48.498;32.260;2022-12-19T08:29:07;-4.70;99.90
45319;DHT22;31057;48.498;32.260;2022-12-19T08:31:11;-4.50;99.90
45319;DHT22;31057;48.498;32.260;2022-12-19T08:33:14;-4.30;99.90
45319;DHT22;31057;48.498;32.260;2022-12-19T08:35:15;-4.40;99.90
45319;DHT22;31057;48.498;32.260;2022-12-19T08:37:17;-4.30;99.90
45319;DHT22;31057;48.498;32.260;2022-12-19T08:39:20;-4.30;99.90
45319;DHT22;31057;48.498;32.260;2022-12-19T08:41:22;-4.50;99.90
45319;DHT22;31057;48.498;32.260;2022-12-19T08:43:25;-4.70;99.90
45319;DHT22;31057;48.498;32.260;2022-12-19T08:45:27;-4.70;99.90
45319;DHT22;31057;48.498;32.260;2022-12-19T08:47:29;-4.50;99.90
45319;DHT22;31057;48.498;32.260;2022-12-19T08:49:31;-4.50;99.90
45319;DHT22;31057;48.498;32.260;2022-12-19T08:51:33;-4.50;99.90
45319;DHT22;31057;48.498;32.260;2022-12-19T08:53:38;-4.30;99.90
45319;DHT22;31057;48.498;32.260;2022-12-19T08:55:40;-4.10;99.90
45319;DHT22;31057;48.498;32.260;2022-12-19T08:57:42;-4.30;99.90
45319;DHT22;31057;48.498;32.260;2022-12-19T08:59:44;-4.30;99.90
45319;DHT22;31057;48.498;32.260;2022-12-19T09:01:47;-4.10;99.90
45319;DHT22;31057;48.498;32.260;2022-12-19T09:03:49;-4.30;99.90
45319;DHT22;31057;48.498;32.260;2022-12-19T09:06:12;-4.00;99.90
45319;DHT22;31057;48.498;32.260;2022-12-19T09:08:20;-4.20;99.90
45319;DHT22;31057;48.498;32.260;2022-12-19T09:10:21;-4.10;99.90
45319;DHT22;31057;48.498;32.260;2022-12-19T09:12:24;-3.90;99.90
45319;DHT22;31057;48.498;32.260;2022-12-19T09:14:25;-4.10;99.90
45319;DHT22;31057;48.498;32.260;2022-12-19T09:16:27;-4.40;99.90
45319;DHT22;31057;48.498;32.260;2022-12-19T09:18:30;-4.40;99.90
45319;DHT22;31057;48.498;32.260;2022-12-19T09:20:33;-4.30;99.90
45319;DHT22;31057;48.498;32.260;2022-12-19T09:22:35;-4.10;99.90
45319;DHT22;31057;48.498;32.260;2022-12-19T09:24:37;-4.20;99.90
45319;DHT22;31057;48.498;32.260;2022-12-19T09:26:38;-4.10;99.90
45319;DHT22;31057;48.498;32.260;2022-12-19T09:28:43;-4.20;99.90
45319;DHT22;31057;48.498;32.260;2022-12-19T09:30:57;-4.00;99.90
45319;DHT22;31057;48.498;32.260;2022-12-19T09:32:59;-3.90;99.90
45319;DHT22;31057;48.498;32.260;2022-12-19T09:35:01;-3.90;99.90
45319;DHT22;31057;48.498;32.260;2022-12-19T09:37:03;-3.80;99.90
45319;DHT22;31057;48.498;32.260;2022-12-19T09:39:05;-3.70;99.90
45319;DHT22;31057;48.498;32.260;2022-12-19T09:41:57;-3.80;99.90
45319;DHT22;31057;48.498;32.260;2022-12-19T09:43:40;-3.80;99.90
45319;DHT22;31057;48.498;32.260;2022-12-19T09:47:59;-3.70;99.90
45319;DHT22;31057;48.498;32.260;2022-12-19T09:50:03;-3.70;99.90
45319;DHT22;31057;48.498;32.260;2022-12-19T09:54:50;-3.60;99.90
45319;DHT22;31057;48.498;32.260;2022-12-19T09:56:58;-3.60;99.90
45319;DHT22;31057;48.498;32.260;2022-12-19T09:59:15;-3.40;99.90
45319;DHT22;31057;48.498;32.260;2022-12-19T10:01:49;-3.30;99.90
45319;DHT22;31057;48.498;32.260;2022-12-19T10:04:11;-3.30;99.90
45319;DHT22;31057;48.498;32.260;2022-12-19T10:06:19;-3.20;99.90
45319;DHT22;31057;48.498;32.260;2022-12-19T10:08:42;-3.30;99.90
45319;DHT22;31057;48.498;32.260;2022-12-19T10:18:20;-3.30;99.90
45319;DHT22;31057;48.498;32.260;2022-12-19T10:20:30;-3.20;99.90
45319;DHT22;31057;48.498;32.260;2022-12-19T10:23:06;-3.00;99.90
45319;DHT22;31057;48.498;32.260;2022-12-19T10:25:24;-3.00;99.90
45319;DHT22;31057;48.498;32.260;2022-12-19T10:30:11;-3.10;99.90
45319;DHT22;31057;48.498;32.260;2022-12-19T10:32:17;-2.90;99.90
45319;DHT22;31057;48.498;32.260;2022-12-19T10:34:23;-3.00;99.90
45319;DHT22;31057;48.498;32.260;2022-12-19T10:36:26;-3.10;99.90
45319;DHT22;31057;48.498;32.260;2022-12-19T10:38:58;-3.00;99.90
45319;DHT22;31057;48.498;32.260;2022-12-19T10:41:18;-3.10;99.90
45319;DHT22;31057;48.498;32.260;2022-12-19T10:45:48;-3.10;99.90
45319;DHT22;31057;48.498;32.260;2022-12-19T10:47:55;-3.10;99.90
45319;DHT22;31057;48.498;32.260;2022-12-19T10:49:58;-3.20;99.90
45319;DHT22;31057;48.498;32.260;2022-12-19T10:52:09;-3.20;99.90
45319;DHT22;31057;48.498;32.260;2022-12-19T10:54:11;-3.00;99.90
45319;DHT22;31057;48.498;32.260;2022-12-19T10:56:20;-2.90;99.90
45319;DHT22;31057;48.498;32.260;2022-12-19T11:00:28;-3.10;99.90
45319;DHT22;31057;48.498;32.260;2022-12-19T11:04:41;-3.30;99.90
45319;DHT22;31057;48.498;32.260;2022-12-19T11:06:49;-3.30;99.90
45319;DHT22;31057;48.498;32.260;2022-12-19T11:09:15;-3.30;99.90
45319;DHT22;31057;48.498;32.260;2022-12-19T11:11:17;-3.10;99.90
45319;DHT22;31057;48.498;32.260;2022-12-19T11:13:40;-3.10;99.90
45319;DHT22;31057;48.498;32.260;2022-12-19T11:16:07;-2.90;99.90
45319;DHT22;31057;48.498;32.260;2022-12-19T11:18:35;-3.10;99.90
45319;DHT22;31057;48.498;32.260;2022-12-19T11:21:13;-2.80;99.90
45319;DHT22;31057;48.498;32.260;2022-12-19T11:23:36;-3.00;99.90
45319;DHT22;31057;48.498;32.260;2022-12-19T11:26:04;-3.00;99.90
45319;DHT22;31057;48.498;32.260;2022-12-19T11:33:28;-2.60;99.90
45319;DHT22;31057;48.498;32.260;2022-12-19T11:35:30;-2.70;99.90
45319;DHT22;31057;48.498;32.260;2022-12-19T11:39:59;-2.90;99.90
45319;DHT22;31057;48.498;32.260;2022-12-19T11:42:09;-2.70;99.90
45319;DHT22;31057;48.498;32.260;2022-12-19T11:44:36;-2.70;99.90
45319;DHT22;31057;48.498;32.260;2022-12-19T11:46:57;-2.70;99.90
45319;DHT22;31057;48.498;32.260;2022-12-19T11:54:19;-2.80;99.90
45319;DHT22;31057;48.498;32.260;2022-12-19T11:56:23;-2.80;99.90
45319;DHT22;31057;48.498;32.260;2022-12-19T11:58:27;-2.70;99.90
45319;DHT22;31057;48.498;32.260;2022-12-19T12:00:31;-2.90;99.90
45319;DHT22;31057;48.498;32.260;2022-12-19T12:03:28;-2.90;99.90
45319;DHT22;31057;48.498;32.260;2022-12-19T14:17:22;-3.70;99.90
45319;DHT22;31057;48.498;32.260;2022-12-19T14:19:26;-3.70;99.90
45319;DHT22;31057;48.498;32.260;2022-12-19T14:21:30;-3.70;99.90
45319;DHT22;31057;48.498;32.260;2022-12-19T14:24:10;-3.80;99.90
45319;DHT22;31057;48.498;32.260;2022-12-19T14:26:30;-3.90;99.90
45319;DHT22;31057;48.498;32.260;2022-12-19T14:31:03;-4.00;99.90
45319;DHT22;31057;48.498;32.260;2022-12-19T14:33:12;-4.00;99.90
45319;DHT22;31057;48.498;32.260;2022-12-19T14:35:41;-4.00;99.90
45319;DHT22;31057;48.498;32.260;2022-12-19T14:38:07;-4.00;99.90
45319;DHT22;31057;48.498;32.260;2022-12-19T14:40:31;-4.00;99.90
45319;DHT22;31057;48.498;32.260;2022-12-19T14:43:02;-4.10;99.90
45319;DHT22;31057;48.498;32.260;2022-12-19T14:45:44;-4.00;99.90
45319;DHT22;31057;48.498;32.260;2022-12-19T14:48:31;-4.00;99.90
45319;DHT22;31057;48.498;32.260;2022-12-19T14:51:04;-4.10;99.90
45319;DHT22;31057;48.498;32.260;2022-12-19T14:53:26;-4.00;99.90
45319;DHT22;31057;48.498;32.260;2022-12-19T14:58:31;-4.10;99.90
45319;DHT22;31057;48.498;32.260;2022-12-19T15:00:53;-4.10;99.90
45319;DHT22;31057;48.498;32.260;2022-12-19T15:03:20;-4.00;99.90
45319;DHT22;31057;48.498;32.260;2022-12-19T15:05:25;-4.10;99.90
45319;DHT22;31057;48.498;32.260;2022-12-19T15:07:29;-4.00;99.90
45319;DHT22;31057;48.498;32.260;2022-12-19T15:10:00;-4.10;99.90
45319;DHT22;31057;48.498;32.260;2022-12-19T15:12:31;-4.10;99.90
45319;DHT22;31057;48.498;32.260;2022-12-19T15:15:20;-4.30;99.90
45319;DHT22;31057;48.498;32.260;2022-12-19T15:17:24;-4.20;99.90
45319;DHT22;31057;48.498;32.260;2022-12-19T15:19:26;-4.20;99.90
45319;DHT22;31057;48.498;32.260;2022-12-19T15:21:29;-4.20;99.90
45319;DHT22;31057;48.498;32.260;2022-12-19T15:23:31;-4.00;99.90
45319;DHT22;31057;48.498;32.260;2022-12-19T15:25:33;-4.00;99.90
45319;DHT22;31057;48.498;32.260;2022-12-19T15:27:55;-4.10;99.90
45319;DHT22;31057;48.498;32.260;2022-12-19T15:29:57;-4.10;99.90
45319;DHT22;31057;48.498;32.260;2022-12-19T15:31:59;-4.10;99.90
45319;DHT22;31057;48.498;32.260;2022-12-19T15:34:29;-4.30;99.90
45319;DHT22;31057;48.498;32.260;2022-12-19T15:36:42;-4.40;99.90
45319;DHT22;31057;48.498;32.260;2022-12-19T15:38:44;-4.40;99.90
45319;DHT22;31057;48.498;32.260;2022-12-19T15:40:46;-4.30;99.90
45319;DHT22;31057;48.498;32.260;2022-12-19T15:42:52;-4.40;99.90
45319;DHT22;31057;48.498;32.260;2022-12-19T15:44:56;-4.40;99.90
45319;DHT22;31057;48.498;32.260;2022-12-19T15:47:02;-4.40;99.90
45319;DHT22;31057;48.498;32.260;2022-12-19T15:49:05;-4.40;99.90
45319;DHT22;31057;48.498;32.260;2022-12-19T15:51:12;-4.40;99.90
45319;DHT22;31057;48.498;32.260;2022-12-19T15:53:26;-4.50;99.90
45319;DHT22;31057;48.498;32.260;2022-12-19T15:55:41;-4.40;99.90
45319;DHT22;31057;48.498;32.260;2022-12-19T15:57:50;-4.30;99.90
45319;DHT22;31057;48.498;32.260;2022-12-19T15:59:53;-4.40;99.90
45319;DHT22;31057;48.498;32.260;2022-12-19T16:01:57;-4.30;99.90
45319;DHT22;31057;48.498;32.260;2022-12-19T16:04:00;-4.40;99.90
45319;DHT22;31057;48.498;32.260;2022-12-19T16:06:10;-4.40;99.90
45319;DHT22;31057;48.498;32.260;2022-12-19T16:08:20;-4.30;99.90
45319;DHT22;31057;48.498;32.260;2022-12-19T16:10:24;-4.30;99.90
45319;DHT22;31057;48.498;32.260;2022-12-19T16:12:35;-4.40;99.90
45319;DHT22;31057;48.498;32.260;2022-12-19T16:14:38;-4.50;99.90
45319;DHT22;31057;48.498;32.260;2022-12-19T16:16:40;-4.50;99.90
45319;DHT22;31057;48.498;32.260;2022-12-19T16:18:42;-4.60;99.90
45319;DHT22;31057;48.498;32.260;2022-12-19T16:20:46;-4.70;99.90
45319;DHT22;31057;48.498;32.260;2022-12-19T16:22:49;-4.70;99.90
45319;DHT22;31057;48.498;32.260;2022-12-19T16:24:52;-4.50;99.90
45319;DHT22;31057;48.498;32.260;2022-12-19T16:26:57;-4.60;99.90
45319;DHT22;31057;48.498;32.260;2022-12-19T16:28:59;-4.50;99.90
45319;DHT22;31057;48.498;32.260;2022-12-19T16:31:14;-4.40;99.90
45319;DHT22;31057;48.498;32.260;2022-12-19T16:33:27;-4.40;99.90
45319;DHT22;31057;48.498;32.260;2022-12-19T16:35:29;-4.40;99.90
45319;DHT22;31057;48.498;32.260;2022-12-19T16:37:51;-4.30;99.90
45319;DHT22;31057;48.498;32.260;2022-12-19T16:39:53;-4.20;99.90
45319;DHT22;31057;48.498;32.260;2022-12-19T16:41:55;-4.30;99.90
45319;DHT22;31057;48.498;32.260;2022-12-19T16:43:57;-4.30;99.90
45319;DHT22;31057;48.498;32.260;2022-12-19T16:45:59;-4.40;99.90
45319;DHT22;31057;48.498;32.260;2022-12-19T16:48:04;-4.30;99.90
45319;DHT22;31057;48.498;32.260;2022-12-19T16:52:16;-4.50;99.90
45319;DHT22;31057;48.498;32.260;2022-12-19T16:54:18;-4.50;99.90
45319;DHT22;31057;48.498;32.260;2022-12-19T16:56:34;-4.70;99.90
45319;DHT22;31057;48.498;32.260;2022-12-19T16:58:37;-4.70;99.90
45319;DHT22;31057;48.498;32.260;2022-12-19T17:00:44;-4.70;99.90
45319;DHT22;31057;48.498;32.260;2022-12-19T17:05:29;-4.80;99.90
45319;DHT22;31057;48.498;32.260;2022-12-19T17:07:32;-4.70;99.90
45319;DHT22;31057;48.498;32.260;2022-12-19T17:09:34;-4.60;99.90
45319;DHT22;31057;48.498;32.260;2022-12-19T17:11:36;-4.70;99.90
45319;DHT22;31057;48.498;32.260;2022-12-19T17:13:38;-4.70;99.90
45319;DHT22;31057;48.498;32.260;2022-12-19T17:15:40;-4.70;99.90
45319;DHT22;31057;48.498;32.260;2022-12-19T17:17:45;-4.70;99.90
45319;DHT22;31057;48.498;32.260;2022-12-19T17:19:47;-4.80;99.90
45319;DHT22;31057;48.498;32.260;2022-12-19T17:21:50;-4.70;99.90
45319;DHT22;31057;48.498;32.260;2022-12-19T17:23:53;-4.80;99.90
45319;DHT22;31057;48.498;32.260;2022-12-19T17:25:57;-4.70;99.90
45319;DHT22;31057;48.498;32.260;2022-12-19T17:28:01;-4.70;99.90
45319;DHT22;31057;48.498;32.260;2022-12-19T17:30:06;-4.70;99.90
45319;DHT22;31057;48.498;32.260;2022-12-19T17:32:14;-4.80;99.90
45319;DHT22;31057;48.498;32.260;2022-12-19T17:34:30;-4.80;99.90
45319;DHT22;31057;48.498;32.260;2022-12-19T17:36:33;-4.90;99.90
45319;DHT22;31057;48.498;32.260;2022-12-19T17:38:38;-4.90;99.90
45319;DHT22;31057;48.498;32.260;2022-12-19T17:40:42;-4.90;99.90
45319;DHT22;31057;48.498;32.260;2022-12-19T17:42:46;-4.90;99.90
45319;DHT22;31057;48.498;32.260;2022-12-19T17:44:48;-4.90;99.90
45319;DHT22;31057;48.498;32.260;2022-12-19T17:46:49;-5.00;99.90
45319;DHT22;31057;48.498;32.260;2022-12-19T17:48:52;-5.00;99.90
45319;DHT22;31057;48.498;32.260;2022-12-19T17:50:55;-5.00;99.90
45319;DHT22;31057;48.498;32.260;2022-12-19T17:52:57;-5.00;99.90
45319;DHT22;31057;48.498;32.260;2022-12-19T17:54:59;-5.00;99.90
45319;DHT22;31057;48.498;32.260;2022-12-19T17:57:01;-5.00;99.90
45319;DHT22;31057;48.498;32.260;2022-12-19T17:59:03;-5.00;99.90
45319;DHT22;31057;48.498;32.260;2022-12-19T18:01:19;-5.00;99.90
45319;DHT22;31057;48.498;32.260;2022-12-19T18:03:24;-4.90;99.90
45319;DHT22;31057;48.498;32.260;2022-12-19T18:05:34;-4.80;99.90
45319;DHT22;31057;48.498;32.260;2022-12-19T18:07:36;-4.80;99.90
45319;DHT22;31057;48.498;32.260;2022-12-19T18:09:39;-4.90;99.90
45319;DHT22;31057;48.498;32.260;2022-12-19T18:11:41;-4.80;99.90
45319;DHT22;31057;48.498;32.260;2022-12-19T18:13:43;-4.90;99.90
45319;DHT22;31057;48.498;32.260;2022-12-19T18:15:45;-5.00;99.90
45319;DHT22;31057;48.498;32.260;2022-12-19T18:17:48;-5.10;99.90
45319;DHT22;31057;48.498;32.260;2022-12-19T18:19:51;-5.10;99.90
45319;DHT22;31057;48.498;32.260;2022-12-19T18:21:53;-5.10;99.90
45319;DHT22;31057;48.498;32.260;2022-12-19T18:23:55;-5.10;99.90
45319;DHT22;31057;48.498;32.260;2022-12-19T18:25:59;-5.20;99.90
45319;DHT22;31057;48.498;32.260;2022-12-19T18:28:03;-5.30;99.90
45319;DHT22;31057;48.498;32.260;2022-12-19T18:30:05;-5.30;99.90
45319;DHT22;31057;48.498;32.260;2022-12-19T18:32:16;-5.40;99.90
45319;DHT22;31057;48.498;32.260;2022-12-19T18:34:21;-5.30;99.90
45319;DHT22;31057;48.498;32.260;2022-12-19T18:36:26;-5.40;99.90
45319;DHT22;31057;48.498;32.260;2022-12-19T18:38:29;-5.40;99.90
45319;DHT22;31057;48.498;32.260;2022-12-19T18:40:30;-5.30;99.90
45319;DHT22;31057;48.498;32.260;2022-12-19T18:42:32;-5.30;99.90
45319;DHT22;31057;48.498;32.260;2022-12-19T18:44:34;-5.20;99.90
45319;DHT22;31057;48.498;32.260;2022-12-19T18:46:36;-5.10;99.90
45319;DHT22;31057;48.498;32.260;2022-12-19T18:48:42;-5.10;99.90
45319;DHT22;31057;48.498;32.260;2022-12-19T18:50:45;-5.20;99.90
45319;DHT22;31057;48.498;32.260;2022-12-19T18:52:48;-5.20;99.90
45319;DHT22;31057;48.498;32.260;2022-12-19T18:54:50;-5.20;99.90
45319;DHT22;31057;48.498;32.260;2022-12-19T18:56:52;-5.20;99.90
45319;DHT22;31057;48.498;32.260;2022-12-19T18:58:54;-5.30;99.90
45319;DHT22;31057;48.498;32.260;2022-12-19T19:00:57;-5.40;99.90
45319;DHT22;31057;48.498;32.260;2022-12-19T19:03:02;-5.40;99.90
45319;DHT22;31057;48.498;32.260;2022-12-19T19:05:13;-5.40;99.90
45319;DHT22;31057;48.498;32.260;2022-12-19T19:07:15;-5.40;99.90
45319;DHT22;31057;48.498;32.260;2022-12-19T19:09:17;-5.40;99.90
45319;DHT22;31057;48.498;32.260;2022-12-19T19:11:19;-5.30;99.90
45319;DHT22;31057;48.498;32.260;2022-12-19T19:13:25;-5.60;99.90
45319;DHT22;31057;48.498;32.260;2022-12-19T19:15:30;-5.60;99.90
45319;DHT22;31057;48.498;32.260;2022-12-19T19:17:33;-5.60;99.90
45319;DHT22;31057;48.498;32.260;2022-12-19T19:19:35;-5.70;99.90
45319;DHT22;31057;48.498;32.260;2022-12-19T19:21:37;-5.70;99.90
45319;DHT22;31057;48.498;32.260;2022-12-19T19:23:48;-5.60;99.90
45319;DHT22;31057;48.498;32.260;2022-12-19T19:25:51;-5.70;99.90
45319;DHT22;31057;48.498;32.260;2022-12-19T19:27:53;-5.70;99.90
45319;DHT22;31057;48.498;32.260;2022-12-19T19:29:56;-5.80;99.90
45319;DHT22;31057;48.498;32.260;2022-12-19T19:31:58;-5.70;99.90
45319;DHT22;31057;48.498;32.260;2022-12-19T19:34:26;-5.70;99.90
45319;DHT22;31057;48.498;32.260;2022-12-19T19:36:31;-5.80;99.90
45319;DHT22;31057;48.498;32.260;2022-12-19T19:38:37;-5.80;99.90
45319;DHT22;31057;48.498;32.260;2022-12-19T19:40:39;-5.80;99.90
45319;DHT22;31057;48.498;32.260;2022-12-19T19:42:41;-5.90;99.90
45319;DHT22;31057;48.498;32.260;2022-12-19T19:44:43;-5.80;99.90
45319;DHT22;31057;48.498;32.260;2022-12-19T19:46:48;-5.60;99.90
45319;DHT22;31057;48.498;32.260;2022-12-19T19:48:50;-5.70;99.90
45319;DHT22;31057;48.498;32.260;2022-12-19T19:50:52;-5.70;99.90
45319;DHT22;31057;48.498;32.260;2022-12-19T19:52:55;-5.80;99.90
45319;DHT22;31057;48.498;32.260;2022-12-19T19:54:57;-5.90;99.90
45319;DHT22;31057;48.498;32.260;2022-12-19T19:56:59;-5.90;99.90
45319;DHT22;31057;48.498;32.260;2022-12-19T19:59:01;-5.90;99.90
45319;DHT22;31057;48.498;32.260;2022-12-19T20:01:10;-5.80;99.90
45319;DHT22;31057;48.498;32.260;2022-12-19T20:03:12;-6.00;99.90
45319;DHT22;31057;48.498;32.260;2022-12-19T20:05:23;-6.00;99.90
45319;DHT22;31057;48.498;32.260;2022-12-19T20:07:25;-6.10;99.90
45319;DHT22;31057;48.498;32.260;2022-12-19T20:09:27;-6.00;99.90
45319;DHT22;31057;48.498;32.260;2022-12-19T20:11:29;-6.00;99.90
45319;DHT22;31057;48.498;32.260;2022-12-19T20:13:31;-6.10;99.90
45319;DHT22;31057;48.498;32.260;2022-12-19T20:15:33;-6.00;99.90
45319;DHT22;31057;48.498;32.260;2022-12-19T20:17:36;-6.00;99.90
45319;DHT22;31057;48.498;32.260;2022-12-19T20:19:38;-6.10;99.90
45319;DHT22;31057;48.498;32.260;2022-12-19T20:21:41;-6.10;99.90
45319;DHT22;31057;48.498;32.260;2022-12-19T20:23:43;-6.20;99.90
45319;DHT22;31057;48.498;32.260;2022-12-19T20:25:45;-6.10;99.90
45319;DHT22;31057;48.498;32.260;2022-12-19T20:27:47;-6.20;99.90
45319;DHT22;31057;48.498;32.260;2022-12-19T20:29:49;-6.20;99.90
45319;DHT22;31057;48.498;32.260;2022-12-19T20:31:51;-6.30;99.90
45319;DHT22;31057;48.498;32.260;2022-12-19T20:33:54;-6.30;99.90
45319;DHT22;31057;48.498;32.260;2022-12-19T20:36:01;-6.40;99.90
45319;DHT22;31057;48.498;32.260;2022-12-19T20:38:05;-6.30;99.90
45319;DHT22;31057;48.498;32.260;2022-12-19T20:40:07;-6.20;99.90
45319;DHT22;31057;48.498;32.260;2022-12-19T20:42:10;-6.30;99.90
45319;DHT22;31057;48.498;32.260;2022-12-19T20:44:12;-6.40;99.90
45319;DHT22;31057;48.498;32.260;2022-12-19T20:46:21;-6.40;99.90
45319;DHT22;31057;48.498;32.260;2022-12-19T20:48:23;-6.30;99.90
45319;DHT22;31057;48.498;32.260;2022-12-19T20:50:25;-6.20;99.90
45319;DHT22;31057;48.498;32.260;2022-12-19T20:52:27;-6.10;99.90
45319;DHT22;31057;48.498;32.260;2022-12-19T20:54:29;-6.20;99.90
45319;DHT22;31057;48.498;32.260;2022-12-19T20:56:30;-6.20;99.90
45319;DHT22;31057;48.498;32.260;2022-12-19T20:58:34;-6.20;99.90
45319;DHT22;31057;48.498;32.260;2022-12-19T21:00:37;-6.20;99.90
45319;DHT22;31057;48.498;32.260;2022-12-19T21:02:39;-6.40;99.90
45319;DHT22;31057;48.498;32.260;2022-12-19T21:05:01;-6.40;99.90
45319;DHT22;31057;48.498;32.260;2022-12-19T21:07:03;-6.30;99.90
45319;DHT22;31057;48.498;32.260;2022-12-19T21:09:05;-6.40;99.90